メインページ
METAR-TAF:

METAR-TAF

空港 :

イサカ, ニューヨーク, アメリカ合衆国

緯度: 42-29N, 経度: 076-27W, 海抜: 335m

現時点の気象観測

当レポートは34分前の09:56(UTC)に作成
西の風 11kt、最大19ktの突風を伴う
気温 -7°C
湿度 73%
気圧 1015 hPa
視程: 14.5km
高度2100ftの曇り
小雪

METAR: KITH 230956Z AUTO 28011G19KT 9SM -SN OVC021 M07/M11 A2997 RMK AO2 SNB20 SLP165 P0000 T10721106

時間: 05:30 (10:30 UTC)

予報

当レポートは1時間57分前の08:33(UTC)に作成
予報は23日の 09時(UTC)から 24日の 06時(UTC)まで有効
西/北西の風 12kt、最大19ktの突風を伴う
視程: 9.7km
高度2500ftの曇り
弱いにわか雪
23日の 10時(UTC)から 23日の 14時(UTC)まで一時的に
視程: 2.4km
高度1800ftの曇り
小雪, 靄
23日の 1700時(UTC)から
北西の風 15kt、最大24ktの突風を伴う
視程: 10km
高度2500ftの曇り
23日の 2100時(UTC)から
北西の風 15kt、最大24ktの突風を伴う
視程: 10km
高度3500ftの千切れ雲あり
24日の 0400時(UTC)から
北西の風 15kt、最大24ktの突風を伴う
視程: 10km
高度2500ftの千切れ雲あり

TAF: KITH 230833Z 2309/2406 30012G19KT 6SM -SHSN OVC025 TEMPO 2310/2314 1 1/2SM -SN BR OVC018 FM231700 31015G24KT P6SM OVC025 FM232100 31015G24KT P6SM BKN035 FM240400 31015G24KT P6SM BKN025

4,000以上の空港の気象観測と天気予報(METAR報とTAF報)

利用可能な観測所は地図上に黄色い丸と赤い丸で示す。

丸の上にカーソルを重ねると観測所名を参照できる。

次にクリックすると気象観測と天気予報を参照できる。

マップの切り替え:黒色「×」印の緑ボタンをクリックして拡大、「-」印の緑ボタンをクリックして縮小、緑色の三角印をクリックして隣りの地図に切り替え


METAR-TAF: